Robris — LJXX — position and weather

sailwx.info

Track history (hours):
 
Tides and Currents Weather Stations Pressure Air Temp Water Temp Dewpoint Dewpoint Depression Visibility Wind Speed Wind Dir Waves Ship Positions

Robris

Last reported at 2018-Jul-20 15:30 UTC. Time now 2018-Jul-20 15:56 UTC.
Position N 62°26' E 006°21'.

Length 46 m; draft 5.3 m.

Type: Cargo ship. MMSI: 259631000.

Date/timePositionNaut miles runAvg speedWind from/ knotsBaromVisibWave heightAir tempDewpointWater temp
2018-Jul-20 15:30N 62°26' E 006°21'0 0.0
2018-Jul-20 15:00N 62°26' E 006°21'0 0.0
2018-Jul-20 14:30N 62°26' E 006°21'0 0.0
2018-Jul-20 14:00N 62°26' E 006°21'0 0.2
2018-Jul-20 13:30N 62°26' E 006°20'0 0.2
2018-Jul-20 13:00N 62°26' E 006°21'0 0.0
2018-Jul-20 12:30N 62°26' E 006°21'0 0.0
2018-Jul-20 12:00N 62°26' E 006°21'0 0.0
2018-Jul-20 11:30N 62°26' E 006°21'0 0.0
2018-Jul-20 11:00N 62°26' E 006°21'0 0.1
2018-Jul-20 10:30N 62°26' E 006°21'4 8.8
2018-Jul-20 10:00N 62°27' E 006°12'3 5.7
2018-Jul-20 09:30N 62°29' E 006°07'510.4
2018-Jul-20 09:00N 62°34' E 006°11'510.9
2018-Jul-20 08:30N 62°37' E 006°20'510.4
2018-Jul-20 08:00N 62°42' E 006°27'510.1
2018-Jul-20 07:30N 62°46' E 006°30'1 2.5
2018-Jul-20 07:00N 62°47' E 006°28'0 0.0
2018-Jul-20 06:30N 62°47' E 006°28'0 0.0
2018-Jul-20 06:00N 62°47' E 006°28'0 0.0
2018-Jul-20 05:30N 62°47' E 006°28'0 0.0
2018-Jul-20 05:00N 62°47' E 006°28'0 0.0
2018-Jul-20 04:29N 62°47' E 006°28'0 0.0
2018-Jul-20 04:00N 62°47' E 006°28'0 0.0
2018-Jul-20 03:30N 62°47' E 006°28'0 0.0
2018-Jul-20 03:00N 62°47' E 006°28'0 0.0
2018-Jul-20 02:29N 62°47' E 006°28'0 0.0
2018-Jul-20 02:00N 62°47' E 006°28'0 0.0
2018-Jul-20 01:29N 62°47' E 006°28'0 0.0
2018-Jul-20 01:00N 62°47' E 006°28'0 0.0
2018-Jul-20 00:30N 62°47' E 006°28'0 0.0
2018-Jul-20 00:00N 62°47' E 006°28'0 0.0
2018-Jul-19 23:30N 62°47' E 006°28'0 0.0
2018-Jul-19 23:00N 62°47' E 006°28'0 0.0
2018-Jul-19 22:30N 62°47' E 006°28'0 0.0
2018-Jul-19 22:00N 62°47' E 006°28'0 0.0
2018-Jul-19 21:30N 62°47' E 006°28'0 0.0
2018-Jul-19 21:00N 62°47' E 006°28'0 0.0
2018-Jul-19 20:30N 62°47' E 006°28'0 0.0
2018-Jul-19 19:59N 62°47' E 006°28'0 0.0
2018-Jul-19 19:30N 62°47' E 006°28'0 0.0
2018-Jul-19 19:00N 62°47' E 006°28'0 0.0
2018-Jul-19 18:30N 62°47' E 006°28'0 0.0
2018-Jul-19 17:59N 62°47' E 006°28'0 0.0
2018-Jul-19 17:30N 62°47' E 006°28'0 0.0
2018-Jul-19 17:00N 62°47' E 006°28'2 4.1
2018-Jul-19 16:30N 62°47' E 006°33'611.0
2018-Jul-19 16:00N 62°50' E 006°43'2 3.4
2018-Jul-19 15:30N 62°51' E 006°47'1 1.1
2018-Jul-19 14:59N 62°51' E 006°46'4 8.1
2018-Jul-19 14:27N 62°47' E 006°41'8 8.6
2018-Jul-19 13:30N 62°40' E 006°32'1 2.9
2018-Jul-19 13:00N 62°39' E 006°34'0 0.0
2018-Jul-19 12:29N 62°39' E 006°34'0 0.0
2018-Jul-19 12:00N 62°39' E 006°34'0 0.0
2018-Jul-19 11:30N 62°39' E 006°34'2 3.4
2018-Jul-19 10:59N 62°38' E 006°30'510.4
2018-Jul-19 10:29N 62°37' E 006°19'510.5
2018-Jul-19 10:00N 62°34' E 006°11'510.1
2018-Jul-19 09:30N 62°28' E 006°09'0 0.1
2018-Jul-19 09:00N 62°28' E 006°09'0 0.0
2018-Jul-19 08:29N 62°28' E 006°09'0 0.0
2018-Jul-19 08:00N 62°28' E 006°09'0 0.0
2018-Jul-19 07:30N 62°28' E 006°09'0 0.0
2018-Jul-19 07:00N 62°28' E 006°09'0 0.0
2018-Jul-19 06:30N 62°28' E 006°09'0 0.0
2018-Jul-19 06:00N 62°28' E 006°09'0 0.0
2018-Jul-19 05:30N 62°28' E 006°09'0 0.0
2018-Jul-19 05:00N 62°28' E 006°09'0 0.0
2018-Jul-19 04:30N 62°28' E 006°09'0 0.0
2018-Jul-19 04:00N 62°28' E 006°09'0 0.0
2018-Jul-19 03:30N 62°28' E 006°09'0 0.0
2018-Jul-19 03:00N 62°28' E 006°09'0 0.0
2018-Jul-19 02:30N 62°28' E 006°09'0 0.0
2018-Jul-19 02:00N 62°28' E 006°09'0 0.0
2018-Jul-19 01:30N 62°28' E 006°09'0 0.0
2018-Jul-19 01:00N 62°28' E 006°09'0 0.0
2018-Jul-19 00:30N 62°28' E 006°09'0 0.0
2018-Jul-19 00:00N 62°28' E 006°09'0 0.0
2018-Jul-18 23:30N 62°28' E 006°09'0 0.0
2018-Jul-18 23:00N 62°28' E 006°09'0 0.0
2018-Jul-18 22:30N 62°28' E 006°09'0 0.0
2018-Jul-18 22:00N 62°28' E 006°09'0 0.0
2018-Jul-18 21:30N 62°28' E 006°09'0 0.0
2018-Jul-18 21:00N 62°28' E 006°09'0 0.0
2018-Jul-18 20:30N 62°28' E 006°09'0 0.0
2018-Jul-18 20:00N 62°28' E 006°09'0 0.0
2018-Jul-18 19:30N 62°28' E 006°09'0 0.0
2018-Jul-18 19:00N 62°28' E 006°09'0 0.0
2018-Jul-18 18:30N 62°28' E 006°09'0 0.8
2018-Jul-18 17:59N 62°29' E 006°08'0 0.8
2018-Jul-18 17:29N 62°28' E 006°07'0 0.9
2018-Jul-18 17:00N 62°29' E 006°08'5 8.8
2018-Jul-18 16:29N 62°24' E 006°04'510.2
2018-Jul-18 16:00N 62°20' E 006°07'1 2.4
2018-Jul-18 15:28N 62°18' E 006°06'3 6.4
2018-Jul-18 14:59N 62°17' E 005°60'4 8.6
2018-Jul-18 14:30N 62°13' E 005°55'5 4.6
2018-Jul-18 13:30N 62°09' E 005°57'1 1.3
2018-Jul-18 13:00N 62°09' E 005°57'510.2
2018-Jul-18 12:30N 62°14' E 005°56'510.7
2018-Jul-18 12:00N 62°18' E 006°04'1 1.5
2018-Jul-18 11:30N 62°18' E 006°06'7 7.0
2018-Jul-18 10:30N 62°13' E 005°55'4 8.5
2018-Jul-18 09:59N 62°09' E 005°57'0 0.9
2018-Jul-18 09:30N 62°09' E 005°57'0 0.0
2018-Jul-18 08:59N 62°09' E 005°57'1 1.2
2018-Jul-18 08:30N 62°09' E 005°57'5 9.5
2018-Jul-18 07:59N 62°14' E 005°56'510.8
2018-Jul-18 07:30N 62°18' E 006°03'4 9.1
2018-Jul-18 07:00N 62°23' E 006°06'4 8.9
2018-Jul-18 06:30N 62°27' E 006°04'510.2
2018-Jul-18 06:00N 62°32' E 006°09'510.4
2018-Jul-18 05:30N 62°36' E 006°16'510.7
2018-Jul-18 05:00N 62°39' E 006°24'510.3
2018-Jul-18 04:30N 62°44' E 006°30'3 7.1
2018-Jul-18 04:00N 62°47' E 006°28'0 0.0
2018-Jul-18 03:30N 62°47' E 006°28'0 0.0
2018-Jul-18 03:00N 62°47' E 006°28'0 0.0
2018-Jul-18 02:29N 62°47' E 006°28'0 0.0
2018-Jul-18 01:59N 62°47' E 006°28'0 0.0
2018-Jul-18 01:30N 62°47' E 006°28'0 0.0
2018-Jul-18 00:58N 62°47' E 006°28'0 0.0
2018-Jul-18 00:29N 62°47' E 006°28'0 0.0
2018-Jul-17 23:59N 62°47' E 006°28'0 0.0
2018-Jul-17 23:30N 62°47' E 006°28'0 0.0
2018-Jul-17 22:59N 62°47' E 006°28'0 0.0
2018-Jul-17 22:29N 62°47' E 006°28'0 0.0
2018-Jul-17 22:00N 62°47' E 006°28'0 0.0
2018-Jul-17 21:30N 62°47' E 006°28'0 0.0
2018-Jul-17 21:00N 62°47' E 006°28'0 0.0
2018-Jul-17 20:30N 62°47' E 006°28'0 0.0
2018-Jul-17 20:00N 62°47' E 006°28'0 0.0
2018-Jul-17 19:30N 62°47' E 006°28'0 0.0
2018-Jul-17 19:00N 62°47' E 006°28'0 0.0
2018-Jul-17 18:30N 62°47' E 006°28'0 0.0
2018-Jul-17 18:00N 62°47' E 006°28'0 0.0
2018-Jul-17 17:30N 62°47' E 006°28'0 0.0
2018-Jul-17 17:00N 62°47' E 006°28'0 0.0
2018-Jul-17 16:28N 62°47' E 006°28'2 4.6
2018-Jul-17 16:00N 62°45' E 006°30'510.7
2018-Jul-17 15:30N 62°40' E 006°30'21 0.5
2018-Jul-15 19:44N 62°58' E 006°52'210.9
2018-Jul-15 19:30N 62°59' E 006°57'510.7
2018-Jul-15 19:00N 63°01' E 007°08'510.5
2018-Jul-15 18:30N 63°03' E 007°18'510.7
2018-Jul-15 18:00N 63°05' E 007°29'511.0
2018-Jul-15 17:30N 63°09' E 007°39'611.1
2018-Jul-15 17:00N 63°11' E 007°50'611.1
2018-Jul-15 16:30N 63°14' E 008°00'611.3
2018-Jul-15 15:59N 63°17' E 008°11'611.5
2018-Jul-15 15:30N 63°21' E 008°21'611.4
2018-Jul-15 15:00N 63°24' E 008°32'611.4
2018-Jul-15 14:29N 63°26' E 008°44'611.3
2018-Jul-15 13:59N 63°28' E 008°55'611.4
2018-Jul-15 13:29N 63°31' E 009°07'611.4
2018-Jul-15 13:00N 63°33' E 009°18'510.7
2018-Jul-15 12:30N 63°37' E 009°27'510.3
2018-Jul-15 12:00N 63°42' E 009°30'611.0
2018-Jul-15 11:30N 63°47' E 009°33'610.9
2018-Jul-15 11:00N 63°52' E 009°40'510.6
2018-Jul-15 10:30N 63°56' E 009°48'510.9
2018-Jul-15 10:00N 63°60' E 009°56'5 9.4
2018-Jul-15 09:30N 64°04' E 010°03'4 8.9
2018-Jul-15 09:00N 64°08' E 010°05'510.9
2018-Jul-15 08:30N 64°13' E 010°12'5 9.8
2018-Jul-15 08:00N 64°16' E 010°19'510.8
2018-Jul-15 07:30N 64°21' E 010°22'510.6
2018-Jul-15 07:00N 64°26' E 010°27'510.2
2018-Jul-15 06:30N 64°30' E 010°34'510.8
2018-Jul-15 06:00N 64°35' E 010°41'510.7
2018-Jul-15 05:30N 64°39' E 010°47'510.6
2018-Jul-15 05:00N 64°43' E 010°56'510.7
2018-Jul-15 04:30N 64°47' E 011°04'611.1
2018-Jul-15 04:00N 64°51' E 011°13'611.5
2018-Jul-15 03:30N 64°55' E 011°23'510.7
2018-Jul-15 03:00N 64°58' E 011°34'510.5
2018-Jul-15 02:30N 65°02' E 011°42'510.9
2018-Jul-15 02:00N 65°07' E 011°48'510.6
2018-Jul-15 01:30N 65°12' E 011°52'510.5
2018-Jul-15 01:00N 65°17' E 011°57'510.6
2018-Jul-15 00:30N 65°21' E 012°03'510.4
2018-Jul-15 00:00N 65°26' E 012°09'4 7.8
2018-Jul-14 23:30N 65°30' E 012°12'510.3
2018-Jul-14 23:00N 65°35' E 012°13'611.0
2018-Jul-14 22:28N 65°40' E 012°15'510.8
2018-Jul-14 22:00N 65°45' E 012°18'510.7
2018-Jul-14 21:30N 65°51' E 012°22'510.7
2018-Jul-14 21:00N 65°56' E 012°24'510.9
2018-Jul-14 20:30N 66°00' E 012°32'510.9
2018-Jul-14 20:00N 66°05' E 012°40'611.2
2018-Jul-14 19:30N 66°09' E 012°49'611.0
2018-Jul-14 19:00N 66°14' E 012°54'510.7
2018-Jul-14 18:30N 66°19' E 012°56'510.5
2018-Jul-14 18:00N 66°24' E 012°58'610.9
2018-Jul-14 17:30N 66°30' E 012°59'5 9.8
2018-Jul-14 16:59N 66°34' E 013°05'510.4
2018-Jul-14 16:30N 66°39' E 013°07'610.9
2018-Jul-14 15:59N 66°45' E 013°12'510.9
2018-Jul-14 15:30N 66°50' E 013°16'510.4
2018-Jul-14 15:00N 66°53' E 013°24'5 9.8
2018-Jul-14 14:30N 66°58' E 013°31'1110.8
2018-Jul-14 13:30N 67°04' E 013°53'510.8
2018-Jul-14 13:00N 67°08' E 014°01'510.6
2018-Jul-14 12:30N 67°13' E 014°07'510.9
2018-Jul-14 12:00N 67°17' E 014°15'510.7
2018-Jul-14 11:30N 67°22' E 014°23'510.6
2018-Jul-14 11:00N 67°27' E 014°29'510.9
2018-Jul-14 10:30N 67°32' E 014°30'510.8
2018-Jul-14 10:00N 67°38' E 014°30'510.7
2018-Jul-14 09:30N 67°43' E 014°31'510.0
2018-Jul-14 08:59N 67°48' E 014°33'510.1
2018-Jul-14 08:29N 67°51' E 014°42'510.1
2018-Jul-14 08:00N 67°56' E 014°48'510.4
2018-Jul-14 07:30N 67°60' E 014°57'510.2
2018-Jul-14 07:00N 68°03' E 015°07'510.4
2018-Jul-14 06:30N 68°07' E 015°17'510.3
2018-Jul-14 06:00N 68°10' E 015°28'510.3
2018-Jul-14 05:29N 68°14' E 015°38'510.3
2018-Jul-14 05:00N 68°18' E 015°47'510.3
2018-Jul-14 04:30N 68°21' E 015°57'510.3
2018-Jul-14 04:00N 68°26' E 016°03'510.5
2018-Jul-14 03:30N 68°31' E 016°09'5 9.6
2018-Jul-14 02:58N 68°34' E 016°20'4 8.6
2018-Jul-14 02:29N 68°34' E 016°32'4 8.9
2018-Jul-14 01:59N 68°38' E 016°36'5 9.8
2018-Jul-14 01:30N 68°43' E 016°41'5 9.4
2018-Jul-14 00:58N 68°48' E 016°37'2 3.6
2018-Jul-14 00:30N 68°47' E 016°33'0 0.4
2018-Jul-14 00:00N 68°48' E 016°33'5 9.4
2018-Jul-13 23:30N 68°51' E 016°43'510.3
2018-Jul-13 23:00N 68°54' E 016°54'510.4
2018-Jul-13 22:30N 68°57' E 017°05'510.5
2018-Jul-13 22:00N 69°01' E 017°16'510.2
2018-Jul-13 21:30N 69°05' E 017°24'510.4
2018-Jul-13 21:00N 69°07' E 017°37'510.7
2018-Jul-13 20:30N 69°09' E 017°51'5 9.1
2018-Jul-13 20:00N 69°12' E 018°00'5 9.5
2018-Jul-13 19:30N 69°17' E 017°58'5 9.7
2018-Jul-13 19:00N 69°21' E 018°05'510.2
2018-Jul-13 18:30N 69°26' E 018°07'5 9.0
2018-Jul-13 18:00N 69°30' E 018°16'510.0
2018-Jul-13 17:30N 69°31' E 018°29'5 9.5
2018-Jul-13 17:00N 69°33' E 018°42'611.5
2018-Jul-13 16:30N 69°37' E 018°54'1 2.9
2018-Jul-13 16:00N 69°38' E 018°56'3 5.8
2018-Jul-13 15:28N 69°41' E 019°01'510.2
2018-Jul-13 14:59N 69°45' E 019°08'510.3
2018-Jul-13 14:30N 69°48' E 019°20'1010.3
2018-Jul-13 13:30N 69°52' E 019°47'4 8.0
2018-Jul-13 12:58N 69°56' E 019°51'2 3.2
2018-Jul-13 12:30N 69°57' E 019°55'4 8.8
2018-Jul-13 12:00N 69°58' E 020°07'4 8.6
2018-Jul-13 11:30N 69°59' E 020°19'4 8.5
2018-Jul-13 11:00N 70°01' E 020°31'4 8.6
2018-Jul-13 10:30N 70°02' E 020°42'3 6.0
2018-Jul-13 09:59N 70°05' E 020°47'1 1.2
2018-Jul-13 09:29N 70°05' E 020°46'0 0.0
2018-Jul-13 09:00N 70°05' E 020°46'0 0.0
2018-Jul-13 08:30N 70°05' E 020°46'0 0.0
2018-Jul-13 07:59N 70°05' E 020°46'0 0.0
2018-Jul-13 07:30N 70°05' E 020°46'0 0.0
2018-Jul-13 06:59N 70°05' E 020°46'0 0.0
2018-Jul-13 06:30N 70°05' E 020°46'0 0.0
2018-Jul-13 06:00N 70°05' E 020°46'0 0.0
2018-Jul-13 05:29N 70°05' E 020°46'0 0.0
2018-Jul-13 05:00N 70°05' E 020°46'0 0.0
2018-Jul-13 04:30N 70°05' E 020°46'0 0.0
2018-Jul-13 03:59N 70°05' E 020°46'0 0.0
2018-Jul-13 03:29N 70°05' E 020°46'0 0.0
2018-Jul-13 03:00N 70°05' E 020°46'0 0.0
2018-Jul-13 02:30N 70°05' E 020°46'0 0.0
2018-Jul-13 02:00N 70°05' E 020°46'0 0.0
2018-Jul-13 01:30N 70°05' E 020°46'0 0.0
2018-Jul-13 01:00N 70°05' E 020°46'0 0.0
2018-Jul-13 00:30N 70°05' E 020°46'0 0.0
2018-Jul-12 23:59N 70°05' E 020°46'0 0.0
2018-Jul-12 23:29N 70°05' E 020°46'0 0.9
2018-Jul-12 23:00N 70°05' E 020°47'3 6.9
2018-Jul-12 22:30N 70°02' E 020°42'5 9.2
2018-Jul-12 22:00N 70°01' E 020°29'5 9.2
2018-Jul-12 21:30N 69°59' E 020°16'5 9.1
2018-Jul-12 21:00N 69°58' E 020°03'4 9.0
2018-Jul-12 20:30N 69°57' E 019°51'1 1.2
2018-Jul-12 20:00N 69°56' E 019°50'0 0.0
2018-Jul-12 19:30N 69°56' E 019°50'0 0.0
2018-Jul-12 19:00N 69°56' E 019°50'2 4.0
2018-Jul-12 18:29N 69°57' E 019°55'4 8.7
2018-Jul-12 18:00N 69°58' E 020°07'4 8.6
2018-Jul-12 17:30N 69°59' E 020°19'4 8.9
2018-Jul-12 17:00N 70°01' E 020°31'5 9.3
2018-Jul-12 16:30N 70°02' E 020°44'3 6.2
2018-Jul-12 16:00N 70°05' E 020°46'0 0.0
2018-Jul-12 15:28N 70°05' E 020°46'0 0.0
2018-Jul-12 15:00N 70°05' E 020°46'0 0.0
2018-Jul-12 14:30N 70°05' E 020°46'0 0.0
2018-Jul-12 14:00N 70°05' E 020°46'0 0.0
2018-Jul-12 13:30N 70°05' E 020°46'0 0.0
2018-Jul-12 13:00N 70°05' E 020°46'0 0.0
2018-Jul-12 12:29N 70°05' E 020°46'0 0.0
2018-Jul-12 12:00N 70°05' E 020°46'0 0.0
2018-Jul-12 11:28N 70°05' E 020°46'0 0.0
2018-Jul-12 11:00N 70°05' E 020°46'0 0.0
2018-Jul-12 10:30N 70°05' E 020°46'0 0.0
2018-Jul-12 09:59N 70°05' E 020°46'0 0.0
2018-Jul-12 09:30N 70°05' E 020°46'0 0.0
2018-Jul-12 09:00N 70°05' E 020°46'0 0.0
2018-Jul-12 08:29N 70°05' E 020°46'0 0.0
2018-Jul-12 08:00N 70°05' E 020°46'0 0.0
2018-Jul-12 07:30N 70°05' E 020°46'0 0.0
2018-Jul-12 06:59N 70°05' E 020°46'0 0.0
2018-Jul-12 06:29N 70°05' E 020°46'0 0.0
2018-Jul-12 06:00N 70°05' E 020°46'0 0.0
2018-Jul-12 05:29N 70°05' E 020°46'0 0.0
2018-Jul-12 05:00N 70°05' E 020°46'0 0.0
2018-Jul-12 04:29N 70°05' E 020°46'0 0.0
2018-Jul-12 04:00N 70°05' E 020°46'0 0.0
2018-Jul-12 03:28N 70°05' E 020°46'0 0.0
2018-Jul-12 02:59N 70°05' E 020°46'0 0.0
2018-Jul-12 02:30N 70°05' E 020°46'0 0.0
2018-Jul-12 02:00N 70°05' E 020°46'0 0.0
2018-Jul-12 01:29N 70°05' E 020°46'0 0.0
2018-Jul-12 00:59N 70°05' E 020°46'0 0.0
2018-Jul-12 00:30N 70°05' E 020°46'0 0.0
2018-Jul-12 00:00N 70°05' E 020°46'3 5.4
2018-Jul-11 23:30N 70°03' E 020°48'5 9.4
2018-Jul-11 23:00N 70°01' E 020°35'5 9.1
2018-Jul-11 22:30N 69°60' E 020°22'4 9.0
2018-Jul-11 22:00N 69°59' E 020°09'5 8.9
2018-Jul-11 21:29N 69°57' E 019°56'3 5.6
2018-Jul-11 21:00N 69°56' E 019°50'0 0.0
2018-Jul-11 20:30N 69°56' E 019°50'0 0.0
2018-Jul-11 20:00N 69°56' E 019°50'0 0.0
2018-Jul-11 19:30N 69°56' E 019°50'0 0.0
2018-Jul-11 19:00N 69°56' E 019°50'1 2.5
2018-Jul-11 18:29N 69°57' E 019°53'4 8.1
2018-Jul-11 18:00N 69°58' E 020°04'4 8.7
2018-Jul-11 17:29N 69°59' E 020°16'4 8.6
2018-Jul-11 17:00N 70°01' E 020°28'5 9.4
2018-Jul-11 16:28N 70°02' E 020°42'3 7.0
2018-Jul-11 16:00N 70°05' E 020°47'0 0.9
2018-Jul-11 15:30N 70°05' E 020°46'0 0.0
2018-Jul-11 15:00N 70°05' E 020°46'0 0.0
2018-Jul-11 14:30N 70°05' E 020°46'0 0.0
2018-Jul-11 14:00N 70°05' E 020°46'0 0.0
2018-Jul-11 13:30N 70°05' E 020°46'0 0.0
2018-Jul-11 12:59N 70°05' E 020°46'0 0.0
2018-Jul-11 12:30N 70°05' E 020°46'0 0.0
2018-Jul-11 12:00N 70°05' E 020°46'0 0.0
2018-Jul-11 11:30N 70°05' E 020°46'0 0.0
2018-Jul-11 11:00N 70°05' E 020°46'0 0.0
2018-Jul-11 10:28N 70°05' E 020°46'0 0.0
2018-Jul-11 10:00N 70°05' E 020°46'0 0.0
2018-Jul-11 09:29N 70°05' E 020°46'0 0.0
2018-Jul-11 09:00N 70°05' E 020°46'0 0.0
2018-Jul-11 08:30N 70°05' E 020°46'0 0.0
2018-Jul-11 08:00N 70°05' E 020°46'0 0.0
2018-Jul-11 07:30N 70°05' E 020°46'0 0.0
2018-Jul-11 06:59N 70°05' E 020°46'0 0.0
2018-Jul-11 06:30N 70°05' E 020°46'0 0.0
2018-Jul-11 06:00N 70°05' E 020°46'0 0.0
2018-Jul-11 05:30N 70°05' E 020°46'0 0.0
2018-Jul-11 05:00N 70°05' E 020°46'0 0.0
2018-Jul-11 04:28N 70°05' E 020°46'0 0.0
2018-Jul-11 04:00N 70°05' E 020°46'0 0.0
2018-Jul-11 03:29N 70°05' E 020°46'0 0.0
2018-Jul-11 02:59N 70°05' E 020°46'0 0.0
2018-Jul-11 02:30N 70°05' E 020°46'0 0.0
2018-Jul-11 02:00N 70°05' E 020°46'0 0.0
2018-Jul-11 01:30N 70°05' E 020°46'0 0.0
2018-Jul-11 00:59N 70°05' E 020°46'0 0.0
2018-Jul-11 00:28N 70°05' E 020°46'0 0.0
2018-Jul-11 00:00N 70°05' E 020°46'0 0.0
2018-Jul-10 23:30N 70°05' E 020°46'0 0.0
2018-Jul-10 23:00N 70°05' E 020°46'0 0.0
2018-Jul-10 22:30N 70°05' E 020°46'1 1.1
2018-Jul-10 21:59N 70°05' E 020°47'3 6.6
2018-Jul-10 21:30N 70°02' E 020°42'5 9.1
2018-Jul-10 21:00N 70°01' E 020°30'5 9.3
2018-Jul-10 20:30N 69°59' E 020°17'5 9.1
2018-Jul-10 20:00N 69°58' E 020°04'5 9.1
2018-Jul-10 19:30N 69°57' E 019°51'1 1.7
2018-Jul-10 19:00N 69°56' E 019°49'0 0.0
2018-Jul-10 18:30N 69°56' E 019°50'0 0.0
2018-Jul-10 18:00N 69°56' E 019°49'0 0.0
2018-Jul-10 17:29N 69°56' E 019°49'0 0.0
2018-Jul-10 17:00N 69°56' E 019°49'0 0.0
2018-Jul-10 16:30N 69°56' E 019°49'0 0.0
2018-Jul-10 16:00N 69°56' E 019°49'0 0.0
2018-Jul-10 15:30N 69°56' E 019°49'  
Track history (hours):
 
Tides and Currents Weather Stations Pressure Air Temp Water Temp Dewpoint Dewpoint Depression Visibility Wind Speed Wind Dir Waves Ship Positions

Robris

Last reported at 2018-Jul-20 15:30 UTC. Time now 2018-Jul-20 15:56 UTC.
Position N 62°26' E 006°21'.

Length 46 m; draft 5.3 m.

Type: Cargo ship. MMSI: 259631000.

Date/timePositionNaut miles runAvg speedWind from/ knotsBaromVisibWave heightAir tempDewpointWater temp
2018-Jul-20 15:30N 62°26' E 006°21'0 0.0
2018-Jul-20 15:00N 62°26' E 006°21'0 0.0
2018-Jul-20 14:30N 62°26' E 006°21'0 0.0
2018-Jul-20 14:00N 62°26' E 006°21'0 0.2
2018-Jul-20 13:30N 62°26' E 006°20'0 0.2
2018-Jul-20 13:00N 62°26' E 006°21'0 0.0
2018-Jul-20 12:30N 62°26' E 006°21'0 0.0
2018-Jul-20 12:00N 62°26' E 006°21'0 0.0
2018-Jul-20 11:30N 62°26' E 006°21'0 0.0
2018-Jul-20 11:00N 62°26' E 006°21'0 0.1
2018-Jul-20 10:30N 62°26' E 006°21'4 8.8
2018-Jul-20 10:00N 62°27' E 006°12'3 5.7
2018-Jul-20 09:30N 62°29' E 006°07'510.4
2018-Jul-20 09:00N 62°34' E 006°11'510.9
2018-Jul-20 08:30N 62°37' E 006°20'510.4
2018-Jul-20 08:00N 62°42' E 006°27'510.1
2018-Jul-20 07:30N 62°46' E 006°30'1 2.5
2018-Jul-20 07:00N 62°47' E 006°28'0 0.0
2018-Jul-20 06:30N 62°47' E 006°28'0 0.0
2018-Jul-20 06:00N 62°47' E 006°28'0 0.0
2018-Jul-20 05:30N 62°47' E 006°28'0 0.0
2018-Jul-20 05:00N 62°47' E 006°28'0 0.0
2018-Jul-20 04:29N 62°47' E 006°28'0 0.0
2018-Jul-20 04:00N 62°47' E 006°28'0 0.0
2018-Jul-20 03:30N 62°47' E 006°28'0 0.0
2018-Jul-20 03:00N 62°47' E 006°28'0 0.0
2018-Jul-20 02:29N 62°47' E 006°28'0 0.0
2018-Jul-20 02:00N 62°47' E 006°28'0 0.0
2018-Jul-20 01:29N 62°47' E 006°28'0 0.0
2018-Jul-20 01:00N 62°47' E 006°28'0 0.0
2018-Jul-20 00:30N 62°47' E 006°28'0 0.0
2018-Jul-20 00:00N 62°47' E 006°28'0 0.0
2018-Jul-19 23:30N 62°47' E 006°28'0 0.0
2018-Jul-19 23:00N 62°47' E 006°28'0 0.0
2018-Jul-19 22:30N 62°47' E 006°28'0 0.0
2018-Jul-19 22:00N 62°47' E 006°28'0 0.0
2018-Jul-19 21:30N 62°47' E 006°28'0 0.0
2018-Jul-19 21:00N 62°47' E 006°28'0 0.0
2018-Jul-19 20:30N 62°47' E 006°28'0 0.0
2018-Jul-19 19:59N 62°47' E 006°28'0 0.0
2018-Jul-19 19:30N 62°47' E 006°28'0 0.0
2018-Jul-19 19:00N 62°47' E 006°28'0 0.0
2018-Jul-19 18:30N 62°47' E 006°28'0 0.0
2018-Jul-19 17:59N 62°47' E 006°28'0 0.0
2018-Jul-19 17:30N 62°47' E 006°28'0 0.0
2018-Jul-19 17:00N 62°47' E 006°28'2 4.1
2018-Jul-19 16:30N 62°47' E 006°33'611.0
2018-Jul-19 16:00N 62°50' E 006°43'2 3.4
2018-Jul-19 15:30N 62°51' E 006°47'1 1.1
2018-Jul-19 14:59N 62°51' E 006°46'4 8.1
2018-Jul-19 14:27N 62°47' E 006°41'8 8.6
2018-Jul-19 13:30N 62°40' E 006°32'1 2.9
2018-Jul-19 13:00N 62°39' E 006°34'0 0.0
2018-Jul-19 12:29N 62°39' E 006°34'0 0.0
2018-Jul-19 12:00N 62°39' E 006°34'0 0.0
2018-Jul-19 11:30N 62°39' E 006°34'2 3.4
2018-Jul-19 10:59N 62°38' E 006°30'510.4
2018-Jul-19 10:29N 62°37' E 006°19'510.5
2018-Jul-19 10:00N 62°34' E 006°11'510.1
2018-Jul-19 09:30N 62°28' E 006°09'0 0.1
2018-Jul-19 09:00N 62°28' E 006°09'0 0.0
2018-Jul-19 08:29N 62°28' E 006°09'0 0.0
2018-Jul-19 08:00N 62°28' E 006°09'0 0.0
2018-Jul-19 07:30N 62°28' E 006°09'0 0.0
2018-Jul-19 07:00N 62°28' E 006°09'0 0.0
2018-Jul-19 06:30N 62°28' E 006°09'0 0.0
2018-Jul-19 06:00N 62°28' E 006°09'0 0.0
2018-Jul-19 05:30N 62°28' E 006°09'0 0.0
2018-Jul-19 05:00N 62°28' E 006°09'0 0.0
2018-Jul-19 04:30N 62°28' E 006°09'0 0.0
2018-Jul-19 04:00N 62°28' E 006°09'0 0.0
2018-Jul-19 03:30N 62°28' E 006°09'0 0.0
2018-Jul-19 03:00N 62°28' E 006°09'0 0.0
2018-Jul-19 02:30N 62°28' E 006°09'0 0.0
2018-Jul-19 02:00N 62°28' E 006°09'0 0.0
2018-Jul-19 01:30N 62°28' E 006°09'0 0.0
2018-Jul-19 01:00N 62°28' E 006°09'0 0.0
2018-Jul-19 00:30N 62°28' E 006°09'0 0.0
2018-Jul-19 00:00N 62°28' E 006°09'0 0.0
2018-Jul-18 23:30N 62°28' E 006°09'0 0.0
2018-Jul-18 23:00N 62°28' E 006°09'0 0.0
2018-Jul-18 22:30N 62°28' E 006°09'0 0.0
2018-Jul-18 22:00N 62°28' E 006°09'0 0.0
2018-Jul-18 21:30N 62°28' E 006°09'0 0.0
2018-Jul-18 21:00N 62°28' E 006°09'0 0.0
2018-Jul-18 20:30N 62°28' E 006°09'0 0.0
2018-Jul-18 20:00N 62°28' E 006°09'0 0.0
2018-Jul-18 19:30N 62°28' E 006°09'0 0.0
2018-Jul-18 19:00N 62°28' E 006°09'0 0.0
2018-Jul-18 18:30N 62°28' E 006°09'0 0.8
2018-Jul-18 17:59N 62°29' E 006°08'0 0.8
2018-Jul-18 17:29N 62°28' E 006°07'0 0.9
2018-Jul-18 17:00N 62°29' E 006°08'5 8.8
2018-Jul-18 16:29N 62°24' E 006°04'510.2
2018-Jul-18 16:00N 62°20' E 006°07'1 2.4
2018-Jul-18 15:28N 62°18' E 006°06'3 6.4
2018-Jul-18 14:59N 62°17' E 005°60'4 8.6
2018-Jul-18 14:30N 62°13' E 005°55'5 4.6
2018-Jul-18 13:30N 62°09' E 005°57'1 1.3
2018-Jul-18 13:00N 62°09' E 005°57'510.2
2018-Jul-18 12:30N 62°14' E 005°56'510.7
2018-Jul-18 12:00N 62°18' E 006°04'1 1.5
2018-Jul-18 11:30N 62°18' E 006°06'7 7.0
2018-Jul-18 10:30N 62°13' E 005°55'4 8.5
2018-Jul-18 09:59N 62°09' E 005°57'0 0.9
2018-Jul-18 09:30N 62°09' E 005°57'0 0.0
2018-Jul-18 08:59N 62°09' E 005°57'1 1.2
2018-Jul-18 08:30N 62°09' E 005°57'5 9.5
2018-Jul-18 07:59N 62°14' E 005°56'510.8
2018-Jul-18 07:30N 62°18' E 006°03'4 9.1
2018-Jul-18 07:00N 62°23' E 006°06'4 8.9
2018-Jul-18 06:30N 62°27' E 006°04'510.2
2018-Jul-18 06:00N 62°32' E 006°09'510.4
2018-Jul-18 05:30N 62°36' E 006°16'510.7
2018-Jul-18 05:00N 62°39' E 006°24'510.3
2018-Jul-18 04:30N 62°44' E 006°30'3 7.1
2018-Jul-18 04:00N 62°47' E 006°28'0 0.0
2018-Jul-18 03:30N 62°47' E 006°28'0 0.0
2018-Jul-18 03:00N 62°47' E 006°28'0 0.0
2018-Jul-18 02:29N 62°47' E 006°28'0 0.0
2018-Jul-18 01:59N 62°47' E 006°28'0 0.0
2018-Jul-18 01:30N 62°47' E 006°28'0 0.0
2018-Jul-18 00:58N 62°47' E 006°28'0 0.0
2018-Jul-18 00:29N 62°47' E 006°28'0 0.0
2018-Jul-17 23:59N 62°47' E 006°28'0 0.0
2018-Jul-17 23:30N 62°47' E 006°28'0 0.0
2018-Jul-17 22:59N 62°47' E 006°28'0 0.0
2018-Jul-17 22:29N 62°47' E 006°28'0 0.0
2018-Jul-17 22:00N 62°47' E 006°28'0 0.0
2018-Jul-17 21:30N 62°47' E 006°28'0 0.0
2018-Jul-17 21:00N 62°47' E 006°28'0 0.0
2018-Jul-17 20:30N 62°47' E 006°28'0 0.0
2018-Jul-17 20:00N 62°47' E 006°28'0 0.0
2018-Jul-17 19:30N 62°47' E 006°28'0 0.0
2018-Jul-17 19:00N 62°47' E 006°28'0 0.0
2018-Jul-17 18:30N 62°47' E 006°28'0 0.0
2018-Jul-17 18:00N 62°47' E 006°28'0 0.0
2018-Jul-17 17:30N 62°47' E 006°28'0 0.0
2018-Jul-17 17:00N 62°47' E 006°28'0 0.0
2018-Jul-17 16:28N 62°47' E 006°28'2 4.6
2018-Jul-17 16:00N 62°45' E 006°30'510.7
2018-Jul-17 15:30N 62°40' E 006°30'21 0.5
2018-Jul-15 19:44N 62°58' E 006°52'210.9
2018-Jul-15 19:30N 62°59' E 006°57'510.7
2018-Jul-15 19:00N 63°01' E 007°08'510.5
2018-Jul-15 18:30N 63°03' E 007°18'510.7
2018-Jul-15 18:00N 63°05' E 007°29'511.0
2018-Jul-15 17:30N 63°09' E 007°39'611.1
2018-Jul-15 17:00N 63°11' E 007°50'611.1
2018-Jul-15 16:30N 63°14' E 008°00'611.3
2018-Jul-15 15:59N 63°17' E 008°11'611.5
2018-Jul-15 15:30N 63°21' E 008°21'611.4
2018-Jul-15 15:00N 63°24' E 008°32'611.4
2018-Jul-15 14:29N 63°26' E 008°44'611.3
2018-Jul-15 13:59N 63°28' E 008°55'611.4
2018-Jul-15 13:29N 63°31' E 009°07'611.4
2018-Jul-15 13:00N 63°33' E 009°18'510.7
2018-Jul-15 12:30N 63°37' E 009°27'510.3
2018-Jul-15 12:00N 63°42' E 009°30'611.0
2018-Jul-15 11:30N 63°47' E 009°33'610.9
2018-Jul-15 11:00N 63°52' E 009°40'510.6
2018-Jul-15 10:30N 63°56' E 009°48'510.9
2018-Jul-15 10:00N 63°60' E 009°56'5 9.4
2018-Jul-15 09:30N 64°04' E 010°03'4 8.9
2018-Jul-15 09:00N 64°08' E 010°05'510.9
2018-Jul-15 08:30N 64°13' E 010°12'5 9.8
2018-Jul-15 08:00N 64°16' E 010°19'510.8
2018-Jul-15 07:30N 64°21' E 010°22'510.6
2018-Jul-15 07:00N 64°26' E 010°27'510.2
2018-Jul-15 06:30N 64°30' E 010°34'510.8
2018-Jul-15 06:00N 64°35' E 010°41'510.7
2018-Jul-15 05:30N 64°39' E 010°47'510.6
2018-Jul-15 05:00N 64°43' E 010°56'510.7
2018-Jul-15 04:30N 64°47' E 011°04'611.1
2018-Jul-15 04:00N 64°51' E 011°13'611.5
2018-Jul-15 03:30N 64°55' E 011°23'510.7
2018-Jul-15 03:00N 64°58' E 011°34'510.5
2018-Jul-15 02:30N 65°02' E 011°42'510.9
2018-Jul-15 02:00N 65°07' E 011°48'510.6
2018-Jul-15 01:30N 65°12' E 011°52'510.5
2018-Jul-15 01:00N 65°17' E 011°57'510.6
2018-Jul-15 00:30N 65°21' E 012°03'510.4
2018-Jul-15 00:00N 65°26' E 012°09'4 7.8
2018-Jul-14 23:30N 65°30' E 012°12'510.3
2018-Jul-14 23:00N 65°35' E 012°13'611.0
2018-Jul-14 22:28N 65°40' E 012°15'510.8
2018-Jul-14 22:00N 65°45' E 012°18'510.7
2018-Jul-14 21:30N 65°51' E 012°22'510.7
2018-Jul-14 21:00N 65°56' E 012°24'510.9
2018-Jul-14 20:30N 66°00' E 012°32'510.9
2018-Jul-14 20:00N 66°05' E 012°40'611.2
2018-Jul-14 19:30N 66°09' E 012°49'611.0
2018-Jul-14 19:00N 66°14' E 012°54'510.7
2018-Jul-14 18:30N 66°19' E 012°56'510.5
2018-Jul-14 18:00N 66°24' E 012°58'610.9
2018-Jul-14 17:30N 66°30' E 012°59'5 9.8
2018-Jul-14 16:59N 66°34' E 013°05'510.4
2018-Jul-14 16:30N 66°39' E 013°07'610.9
2018-Jul-14 15:59N 66°45' E 013°12'510.9
2018-Jul-14 15:30N 66°50' E 013°16'510.4
2018-Jul-14 15:00N 66°53' E 013°24'5 9.8
2018-Jul-14 14:30N 66°58' E 013°31'1110.8
2018-Jul-14 13:30N 67°04' E 013°53'510.8
2018-Jul-14 13:00N 67°08' E 014°01'510.6
2018-Jul-14 12:30N 67°13' E 014°07'510.9
2018-Jul-14 12:00N 67°17' E 014°15'510.7
2018-Jul-14 11:30N 67°22' E 014°23'510.6
2018-Jul-14 11:00N 67°27' E 014°29'510.9
2018-Jul-14 10:30N 67°32' E 014°30'510.8
2018-Jul-14 10:00N 67°38' E 014°30'510.7
2018-Jul-14 09:30N 67°43' E 014°31'510.0
2018-Jul-14 08:59N 67°48' E 014°33'510.1
2018-Jul-14 08:29N 67°51' E 014°42'510.1
2018-Jul-14 08:00N 67°56' E 014°48'510.4
2018-Jul-14 07:30N 67°60' E 014°57'510.2
2018-Jul-14 07:00N 68°03' E 015°07'510.4
2018-Jul-14 06:30N 68°07' E 015°17'510.3
2018-Jul-14 06:00N 68°10' E 015°28'510.3
2018-Jul-14 05:29N 68°14' E 015°38'510.3
2018-Jul-14 05:00N 68°18' E 015°47'510.3
2018-Jul-14 04:30N 68°21' E 015°57'510.3
2018-Jul-14 04:00N 68°26' E 016°03'510.5
2018-Jul-14 03:30N 68°31' E 016°09'5 9.6
2018-Jul-14 02:58N 68°34' E 016°20'4 8.6
2018-Jul-14 02:29N 68°34' E 016°32'4 8.9
2018-Jul-14 01:59N 68°38' E 016°36'5 9.8
2018-Jul-14 01:30N 68°43' E 016°41'5 9.4
2018-Jul-14 00:58N 68°48' E 016°37'2 3.6
2018-Jul-14 00:30N 68°47' E 016°33'0 0.4
2018-Jul-14 00:00N 68°48' E 016°33'5 9.4
2018-Jul-13 23:30N 68°51' E 016°43'510.3
2018-Jul-13 23:00N 68°54' E 016°54'510.4
2018-Jul-13 22:30N 68°57' E 017°05'510.5
2018-Jul-13 22:00N 69°01' E 017°16'510.2
2018-Jul-13 21:30N 69°05' E 017°24'510.4
2018-Jul-13 21:00N 69°07' E 017°37'510.7
2018-Jul-13 20:30N 69°09' E 017°51'5 9.1
2018-Jul-13 20:00N 69°12' E 018°00'5 9.5
2018-Jul-13 19:30N 69°17' E 017°58'5 9.7
2018-Jul-13 19:00N 69°21' E 018°05'510.2
2018-Jul-13 18:30N 69°26' E 018°07'5 9.0
2018-Jul-13 18:00N 69°30' E 018°16'510.0
2018-Jul-13 17:30N 69°31' E 018°29'5 9.5
2018-Jul-13 17:00N 69°33' E 018°42'611.5
2018-Jul-13 16:30N 69°37' E 018°54'1 2.9
2018-Jul-13 16:00N 69°38' E 018°56'3 5.8
2018-Jul-13 15:28N 69°41' E 019°01'510.2
2018-Jul-13 14:59N 69°45' E 019°08'510.3
2018-Jul-13 14:30N 69°48' E 019°20'1010.3
2018-Jul-13 13:30N 69°52' E 019°47'4 8.0
2018-Jul-13 12:58N 69°56' E 019°51'2 3.2
2018-Jul-13 12:30N 69°57' E 019°55'4 8.8
2018-Jul-13 12:00N 69°58' E 020°07'4 8.6
2018-Jul-13 11:30N 69°59' E 020°19'4 8.5
2018-Jul-13 11:00N 70°01' E 020°31'4 8.6
2018-Jul-13 10:30N 70°02' E 020°42'3 6.0
2018-Jul-13 09:59N 70°05' E 020°47'1 1.2
2018-Jul-13 09:29N 70°05' E 020°46'0 0.0
2018-Jul-13 09:00N 70°05' E 020°46'0 0.0
2018-Jul-13 08:30N 70°05' E 020°46'0 0.0
2018-Jul-13 07:59N 70°05' E 020°46'0 0.0
2018-Jul-13 07:30N 70°05' E 020°46'0 0.0
2018-Jul-13 06:59N 70°05' E 020°46'0 0.0
2018-Jul-13 06:30N 70°05' E 020°46'0 0.0
2018-Jul-13 06:00N 70°05' E 020°46'0 0.0
2018-Jul-13 05:29N 70°05' E 020°46'0 0.0
2018-Jul-13 05:00N 70°05' E 020°46'0 0.0
2018-Jul-13 04:30N 70°05' E 020°46'0 0.0
2018-Jul-13 03:59N 70°05' E 020°46'0 0.0
2018-Jul-13 03:29N 70°05' E 020°46'0 0.0
2018-Jul-13 03:00N 70°05' E 020°46'0 0.0
2018-Jul-13 02:30N 70°05' E 020°46'0 0.0
2018-Jul-13 02:00N 70°05' E 020°46'0 0.0
2018-Jul-13 01:30N 70°05' E 020°46'0 0.0
2018-Jul-13 01:00N 70°05' E 020°46'0 0.0
2018-Jul-13 00:30N 70°05' E 020°46'0 0.0
2018-Jul-12 23:59N 70°05' E 020°46'0 0.0
2018-Jul-12 23:29N 70°05' E 020°46'0 0.9
2018-Jul-12 23:00N 70°05' E 020°47'3 6.9
2018-Jul-12 22:30N 70°02' E 020°42'5 9.2
2018-Jul-12 22:00N 70°01' E 020°29'5 9.2
2018-Jul-12 21:30N 69°59' E 020°16'5 9.1
2018-Jul-12 21:00N 69°58' E 020°03'4 9.0
2018-Jul-12 20:30N 69°57' E 019°51'1 1.2
2018-Jul-12 20:00N 69°56' E 019°50'0 0.0
2018-Jul-12 19:30N 69°56' E 019°50'0 0.0
2018-Jul-12 19:00N 69°56' E 019°50'2 4.0
2018-Jul-12 18:29N 69°57' E 019°55'4 8.7
2018-Jul-12 18:00N 69°58' E 020°07'4 8.6
2018-Jul-12 17:30N 69°59' E 020°19'4 8.9
2018-Jul-12 17:00N 70°01' E 020°31'5 9.3
2018-Jul-12 16:30N 70°02' E 020°44'3 6.2
2018-Jul-12 16:00N 70°05' E 020°46'0 0.0
2018-Jul-12 15:28N 70°05' E 020°46'0 0.0
2018-Jul-12 15:00N 70°05' E 020°46'0 0.0
2018-Jul-12 14:30N 70°05' E 020°46'0 0.0
2018-Jul-12 14:00N 70°05' E 020°46'0 0.0
2018-Jul-12 13:30N 70°05' E 020°46'0 0.0
2018-Jul-12 13:00N 70°05' E 020°46'0 0.0
2018-Jul-12 12:29N 70°05' E 020°46'0 0.0
2018-Jul-12 12:00N 70°05' E 020°46'0 0.0
2018-Jul-12 11:28N 70°05' E 020°46'0 0.0
2018-Jul-12 11:00N 70°05' E 020°46'0 0.0
2018-Jul-12 10:30N 70°05' E 020°46'0 0.0
2018-Jul-12 09:59N 70°05' E 020°46'0 0.0
2018-Jul-12 09:30N 70°05' E 020°46'0 0.0
2018-Jul-12 09:00N 70°05' E 020°46'0 0.0
2018-Jul-12 08:29N 70°05' E 020°46'0 0.0
2018-Jul-12 08:00N 70°05' E 020°46'0 0.0
2018-Jul-12 07:30N 70°05' E 020°46'0 0.0
2018-Jul-12 06:59N 70°05' E 020°46'0 0.0
2018-Jul-12 06:29N 70°05' E 020°46'0 0.0
2018-Jul-12 06:00N 70°05' E 020°46'0 0.0
2018-Jul-12 05:29N 70°05' E 020°46'0 0.0
2018-Jul-12 05:00N 70°05' E 020°46'0 0.0
2018-Jul-12 04:29N 70°05' E 020°46'0 0.0
2018-Jul-12 04:00N 70°05' E 020°46'0 0.0
2018-Jul-12 03:28N 70°05' E 020°46'0 0.0
2018-Jul-12 02:59N 70°05' E 020°46'0 0.0
2018-Jul-12 02:30N 70°05' E 020°46'0 0.0
2018-Jul-12 02:00N 70°05' E 020°46'0 0.0
2018-Jul-12 01:29N 70°05' E 020°46'0 0.0
2018-Jul-12 00:59N 70°05' E 020°46'0 0.0
2018-Jul-12 00:30N 70°05' E 020°46'0 0.0
2018-Jul-12 00:00N 70°05' E 020°46'3 5.4
2018-Jul-11 23:30N 70°03' E 020°48'5 9.4
2018-Jul-11 23:00N 70°01' E 020°35'5 9.1
2018-Jul-11 22:30N 69°60' E 020°22'4 9.0
2018-Jul-11 22:00N 69°59' E 020°09'5 8.9
2018-Jul-11 21:29N 69°57' E 019°56'3 5.6
2018-Jul-11 21:00N 69°56' E 019°50'0 0.0
2018-Jul-11 20:30N 69°56' E 019°50'0 0.0
2018-Jul-11 20:00N 69°56' E 019°50'0 0.0
2018-Jul-11 19:30N 69°56' E 019°50'0 0.0
2018-Jul-11 19:00N 69°56' E 019°50'1 2.5
2018-Jul-11 18:29N 69°57' E 019°53'4 8.1
2018-Jul-11 18:00N 69°58' E 020°04'4 8.7
2018-Jul-11 17:29N 69°59' E 020°16'4 8.6
2018-Jul-11 17:00N 70°01' E 020°28'5 9.4
2018-Jul-11 16:28N 70°02' E 020°42'3 7.0
2018-Jul-11 16:00N 70°05' E 020°47'0 0.9
2018-Jul-11 15:30N 70°05' E 020°46'0 0.0
2018-Jul-11 15:00N 70°05' E 020°46'0 0.0
2018-Jul-11 14:30N 70°05' E 020°46'0 0.0
2018-Jul-11 14:00N 70°05' E 020°46'0 0.0
2018-Jul-11 13:30N 70°05' E 020°46'0 0.0
2018-Jul-11 12:59N 70°05' E 020°46'0 0.0
2018-Jul-11 12:30N 70°05' E 020°46'0 0.0
2018-Jul-11 12:00N 70°05' E 020°46'0 0.0
2018-Jul-11 11:30N 70°05' E 020°46'0 0.0
2018-Jul-11 11:00N 70°05' E 020°46'0 0.0
2018-Jul-11 10:28N 70°05' E 020°46'0 0.0
2018-Jul-11 10:00N 70°05' E 020°46'0 0.0
2018-Jul-11 09:29N 70°05' E 020°46'0 0.0
2018-Jul-11 09:00N 70°05' E 020°46'0 0.0
2018-Jul-11 08:30N 70°05' E 020°46'0 0.0
2018-Jul-11 08:00N 70°05' E 020°46'0 0.0
2018-Jul-11 07:30N 70°05' E 020°46'0 0.0
2018-Jul-11 06:59N 70°05' E 020°46'0 0.0
2018-Jul-11 06:30N 70°05' E 020°46'0 0.0
2018-Jul-11 06:00N 70°05' E 020°46'0 0.0
2018-Jul-11 05:30N 70°05' E 020°46'0 0.0
2018-Jul-11 05:00N 70°05' E 020°46'0 0.0
2018-Jul-11 04:28N 70°05' E 020°46'0 0.0
2018-Jul-11 04:00N 70°05' E 020°46'0 0.0
2018-Jul-11 03:29N 70°05' E 020°46'0 0.0
2018-Jul-11 02:59N 70°05' E 020°46'0 0.0
2018-Jul-11 02:30N 70°05' E 020°46'0 0.0
2018-Jul-11 02:00N 70°05' E 020°46'0 0.0
2018-Jul-11 01:30N 70°05' E 020°46'0 0.0
2018-Jul-11 00:59N 70°05' E 020°46'0 0.0
2018-Jul-11 00:28N 70°05' E 020°46'0 0.0
2018-Jul-11 00:00N 70°05' E 020°46'0 0.0
2018-Jul-10 23:30N 70°05' E 020°46'0 0.0
2018-Jul-10 23:00N 70°05' E 020°46'0 0.0
2018-Jul-10 22:30N 70°05' E 020°46'1 1.1
2018-Jul-10 21:59N 70°05' E 020°47'3 6.6
2018-Jul-10 21:30N 70°02' E 020°42'5 9.1
2018-Jul-10 21:00N 70°01' E 020°30'5 9.3
2018-Jul-10 20:30N 69°59' E 020°17'5 9.1
2018-Jul-10 20:00N 69°58' E 020°04'5 9.1
2018-Jul-10 19:30N 69°57' E 019°51'1 1.7
2018-Jul-10 19:00N 69°56' E 019°49'0 0.0
2018-Jul-10 18:30N 69°56' E 019°50'0 0.0
2018-Jul-10 18:00N 69°56' E 019°49'0 0.0
2018-Jul-10 17:29N 69°56' E 019°49'0 0.0
2018-Jul-10 17:00N 69°56' E 019°49'0 0.0
2018-Jul-10 16:30N 69°56' E 019°49'0 0.0
2018-Jul-10 16:00N 69°56' E 019°49'0 0.0
2018-Jul-10 15:30N 69°56' E 019°49'  

Dump ship's entire track history